createdAt,value
2022-11-02T00:00:44.256Z,23.02
2022-11-02T00:03:11.174Z,23.95
2022-11-02T00:05:38.105Z,26.40
2022-11-02T00:08:05.106Z,23.13
2022-11-02T00:10:31.939Z,24.77
2022-11-02T00:12:58.828Z,25.45
2022-11-02T00:15:28.469Z,26.77
2022-11-02T00:20:37.234Z,28.50
2022-11-02T00:23:07.601Z,27.42
2022-11-02T00:25:34.901Z,28.02
2022-11-02T00:28:01.785Z,29.60
2022-11-02T00:30:29.287Z,28.73
2022-11-02T00:32:57.085Z,30.20
2022-11-02T00:35:23.991Z,31.00
2022-11-02T00:37:50.899Z,34.25
2022-11-02T00:40:18.316Z,35.75
2022-11-02T00:42:45.209Z,33.15
2022-11-02T00:45:12.069Z,33.17
2022-11-02T00:47:38.919Z,33.10
2022-11-02T00:50:06.462Z,30.75
2022-11-02T00:52:33.272Z,28.33
2022-11-02T00:55:00.114Z,29.48
2022-11-02T00:57:27.030Z,29.63
2022-11-02T00:59:53.911Z,27.80
2022-11-02T01:02:20.853Z,27.52
2022-11-02T01:04:47.758Z,28.75
2022-11-02T01:07:14.637Z,29.42
2022-11-02T01:09:41.484Z,28.75
2022-11-02T01:12:08.414Z,29.00
2022-11-02T01:14:35.255Z,29.20
2022-11-02T01:17:02.099Z,28.05
2022-11-02T01:19:28.894Z,27.15
2022-11-02T01:21:55.694Z,28.00
2022-11-02T01:24:22.531Z,25.20
2022-11-02T01:26:53.104Z,25.45
2022-11-02T01:29:20.179Z,26.00
2022-11-02T01:31:48.546Z,24.77
2022-11-02T01:34:15.935Z,25.02
2022-11-02T01:36:45.550Z,26.15
2022-11-02T01:39:12.990Z,25.77
2022-11-02T01:41:39.899Z,25.38
2022-11-02T01:44:27.231Z,25.92
2022-11-02T01:46:57.991Z,26.13
2022-11-02T01:49:26.220Z,25.63
2022-11-02T01:52:09.906Z,28.00
2022-11-02T01:54:44.700Z,26.90
2022-11-02T01:57:17.127Z,27.25
2022-11-02T01:59:53.851Z,27.45
2022-11-02T02:02:22.996Z,26.63
2022-11-02T02:04:54.730Z,25.60
2022-11-02T02:09:51.977Z,23.63
2022-11-02T02:12:20.114Z,23.30
2022-11-02T02:14:47.416Z,23.98
2022-11-02T02:17:31.682Z,23.50
2022-11-02T02:20:37.210Z,24.30
2022-11-02T02:23:25.333Z,23.08
2022-11-02T02:25:52.075Z,24.42
2022-11-02T02:28:41.791Z,23.60
2022-11-02T02:31:29.521Z,23.15
2022-11-02T02:34:17.532Z,22.60
2022-11-02T02:37:16.953Z,22.88
2022-11-02T02:39:51.706Z,22.65
2022-11-02T02:42:47.056Z,23.38
2022-11-02T02:45:35.970Z,24.63
2022-11-02T02:48:10.154Z,23.25
2022-11-02T02:50:46.313Z,24.45
2022-11-02T02:53:14.927Z,25.42
2022-11-02T02:55:46.130Z,25.77
2022-11-02T02:58:26.997Z,26.13
2022-11-02T03:00:55.289Z,25.53
2022-11-02T03:03:27.289Z,24.90
2022-11-02T03:06:09.153Z,26.00
2022-11-02T03:08:39.658Z,24.67
2022-11-02T03:11:17.016Z,23.85
2022-11-02T03:14:31.177Z,24.40
2022-11-02T03:17:16.637Z,22.27
2022-11-02T03:20:01.987Z,22.80
2022-11-02T03:22:28.749Z,23.98
2022-11-02T03:25:06.148Z,22.85
2022-11-02T03:27:54.351Z,21.88
2022-11-02T03:30:28.138Z,22.05
2022-11-02T03:33:01.092Z,22.23
2022-11-02T03:35:51.406Z,22.00
2022-11-02T03:38:24.499Z,22.17
2022-11-02T03:40:54.386Z,21.55
2022-11-02T03:43:22.955Z,22.70
2022-11-02T03:46:02.114Z,19.92
2022-11-02T03:48:32.454Z,22.67
2022-11-02T03:51:02.990Z,22.90
2022-11-02T03:53:46.008Z,20.40
2022-11-02T03:56:19.235Z,21.08
2022-11-02T03:58:46.186Z,20.83
2022-11-02T04:01:14.784Z,20.65
2022-11-02T04:03:45.217Z,20.52
2022-11-02T04:06:12.990Z,21.02
2022-11-02T04:08:42.722Z,19.70
2022-11-02T04:11:28.850Z,20.50
2022-11-02T04:14:14.156Z,19.48
2022-11-02T04:16:41.162Z,20.42
2022-11-02T04:19:38.219Z,20.00
2022-11-02T04:22:23.926Z,19.70
2022-11-02T04:25:09.355Z,18.13
2022-11-02T04:27:36.195Z,19.65
2022-11-02T04:30:03.645Z,27.58
2022-11-02T04:32:48.893Z,26.65
2022-11-02T04:35:15.763Z,23.33
2022-11-02T04:38:02.499Z,21.63
2022-11-02T04:40:29.803Z,21.90
2022-11-02T04:42:56.686Z,21.75
2022-11-02T04:45:23.471Z,20.65
2022-11-02T04:47:50.290Z,20.52
2022-11-02T04:50:17.172Z,21.30
2022-11-02T04:52:44.176Z,21.30
2022-11-02T04:55:10.968Z,20.77
2022-11-02T04:57:37.829Z,19.65
2022-11-02T05:00:07.510Z,21.90
2022-11-02T05:02:34.404Z,22.52
2022-11-02T05:05:01.309Z,22.45
2022-11-02T05:07:28.082Z,35.60
2022-11-02T05:09:54.858Z,26.75
2022-11-02T05:12:25.247Z,25.05
2022-11-02T05:14:54.954Z,27.50
2022-11-02T05:17:21.762Z,26.85
2022-11-02T05:19:48.589Z,25.70
2022-11-02T05:22:15.392Z,26.58
2022-11-02T05:24:42.195Z,25.75
2022-11-02T05:27:10.451Z,25.40
2022-11-02T05:29:37.263Z,24.50
2022-11-02T05:32:04.427Z,25.85
2022-11-02T05:34:31.277Z,25.42
2022-11-02T05:36:58.823Z,25.40
2022-11-02T05:39:25.667Z,24.35
2022-11-02T05:41:52.452Z,24.65
2022-11-02T05:44:19.257Z,23.20
2022-11-02T05:46:46.047Z,25.05
2022-11-02T05:49:12.832Z,24.00
2022-11-02T05:51:39.832Z,23.58
2022-11-02T05:54:06.621Z,22.02
2022-11-02T05:56:33.463Z,22.92
2022-11-02T05:59:00.270Z,23.88
2022-11-02T06:01:27.159Z,24.42
2022-11-02T06:03:54.062Z,22.45
2022-11-02T06:06:21.830Z,22.60
2022-11-02T06:08:48.670Z,21.85
2022-11-02T06:11:15.820Z,22.90
2022-11-02T06:13:42.925Z,21.92
2022-11-02T06:16:11.987Z,23.60
2022-11-02T06:18:39.197Z,20.90
2022-11-02T06:21:06.373Z,23.98
2022-11-02T06:23:33.938Z,23.58
2022-11-02T06:26:02.283Z,23.13
2022-11-02T06:28:30.912Z,22.45
2022-11-02T06:30:58.064Z,23.08
2022-11-02T06:33:24.909Z,22.83
2022-11-02T06:35:53.449Z,24.45
2022-11-02T06:38:20.359Z,24.30
2022-11-02T06:41:06.759Z,25.10
2022-11-02T06:43:34.431Z,24.52
2022-11-02T06:46:01.251Z,23.88
2022-11-02T06:48:34.591Z,25.00
2022-11-02T06:51:03.418Z,25.65
2022-11-02T06:53:30.740Z,26.52
2022-11-02T06:55:59.394Z,26.60
2022-11-02T06:58:26.706Z,26.75
2022-11-02T07:01:05.019Z,26.23
2022-11-02T07:03:31.867Z,27.60
2022-11-02T07:05:58.792Z,25.65
2022-11-02T07:08:27.430Z,25.38
2022-11-02T07:10:54.674Z,25.10
2022-11-02T07:13:21.562Z,27.05
2022-11-02T07:15:52.809Z,27.88
2022-11-02T07:18:19.806Z,27.00
2022-11-02T07:20:46.607Z,27.13
2022-11-02T07:23:13.419Z,28.92
2022-11-02T07:25:40.288Z,28.55
2022-11-02T07:28:07.119Z,33.47
2022-11-02T07:30:35.392Z,32.80
2022-11-02T07:33:02.548Z,31.50
2022-11-02T07:35:29.963Z,29.95
2022-11-02T07:38:02.107Z,31.27
2022-11-02T07:40:30.351Z,31.05
2022-11-02T07:42:57.748Z,32.20
2022-11-02T07:45:25.335Z,31.70
2022-11-02T07:47:52.397Z,29.02
2022-11-02T07:50:22.169Z,31.27
2022-11-02T07:52:51.219Z,30.52
2022-11-02T07:55:21.320Z,30.17
2022-11-02T07:58:05.476Z,32.13
2022-11-02T08:00:35.461Z,31.20
2022-11-02T08:03:04.588Z,32.58
2022-11-02T08:05:34.289Z,32.58
2022-11-02T08:08:02.277Z,30.45
2022-11-02T08:10:35.345Z,29.05
2022-11-02T08:13:06.108Z,27.77
2022-11-02T08:15:32.960Z,28.23
2022-11-02T08:18:00.946Z,27.73
2022-11-02T08:20:27.947Z,25.73
2022-11-02T08:22:54.803Z,27.35
2022-11-02T08:25:21.630Z,25.58
2022-11-02T08:27:48.445Z,25.27
2022-11-02T08:30:15.365Z,25.92
2022-11-02T08:32:42.310Z,24.63
2022-11-02T08:35:09.329Z,24.50
2022-11-02T08:37:36.591Z,21.83
2022-11-02T08:40:03.564Z,21.40
2022-11-02T08:42:30.399Z,21.25
2022-11-02T08:44:57.154Z,24.15
2022-11-02T08:47:24.463Z,24.33
2022-11-02T08:49:51.851Z,21.67
2022-11-02T08:52:19.220Z,19.17
2022-11-02T08:54:46.004Z,20.70
2022-11-02T08:57:12.914Z,19.80
2022-11-02T08:59:39.720Z,19.50
2022-11-02T09:02:07.137Z,20.08
2022-11-02T09:04:34.003Z,18.63
2022-11-02T09:07:00.772Z,17.75
2022-11-02T09:09:27.555Z,22.30
2022-11-02T09:11:54.339Z,17.58
2022-11-02T09:14:21.175Z,22.17
2022-11-02T09:16:47.999Z,19.02
2022-11-02T09:19:14.839Z,18.25
2022-11-02T09:21:41.715Z,19.20
2022-11-02T09:24:08.886Z,17.20
2022-11-02T09:26:35.720Z,18.42
2022-11-02T09:29:02.593Z,18.33
2022-11-02T09:31:30.238Z,17.90
2022-11-02T09:33:57.123Z,20.10
2022-11-02T09:36:23.966Z,19.08
2022-11-02T09:38:50.830Z,16.52
2022-11-02T09:41:29.297Z,17.15
2022-11-02T09:44:18.782Z,16.90
2022-11-02T09:46:46.974Z,16.50
2022-11-02T09:49:23.325Z,16.52
2022-11-02T09:51:51.182Z,17.33
2022-11-02T09:54:33.842Z,16.75
2022-11-02T09:57:14.537Z,15.45
2022-11-02T09:59:42.075Z,15.95
2022-11-02T10:02:39.802Z,31.77
2022-11-02T10:05:33.974Z,20.00
2022-11-02T10:08:22.790Z,18.45
2022-11-02T10:11:18.555Z,15.77
2022-11-02T10:13:54.180Z,15.60
2022-11-02T10:16:46.661Z,15.70
2022-11-02T10:19:18.956Z,16.05
2022-11-02T10:21:48.857Z,14.32
2022-11-02T10:24:40.188Z,16.98
2022-11-02T10:27:26.525Z,13.73
2022-11-02T10:30:10.609Z,13.80
2022-11-02T10:32:39.944Z,12.75
2022-11-02T10:35:36.690Z,13.02
2022-11-02T10:38:50.241Z,13.75
2022-11-02T10:41:49.460Z,18.05
2022-11-02T10:44:32.374Z,11.98
2022-11-02T10:47:16.316Z,11.85
2022-11-02T10:50:12.513Z,10.85
2022-11-02T10:52:43.127Z,11.35
2022-11-02T10:55:27.452Z,10.90
2022-11-02T10:57:56.315Z,16.23
2022-11-02T11:00:28.177Z,12.48
2022-11-02T11:03:15.919Z,11.80
2022-11-02T11:05:57.301Z,11.85
2022-11-02T11:08:44.896Z,12.55
2022-11-02T11:11:13.634Z,14.75
2022-11-02T11:16:36.278Z,12.50
2022-11-02T11:21:52.191Z,12.43
2022-11-02T11:24:25.517Z,11.70
2022-11-02T11:27:15.507Z,11.77
2022-11-02T11:29:48.936Z,10.85
2022-11-02T11:32:35.990Z,11.27
2022-11-02T11:35:08.028Z,13.07
2022-11-02T11:37:34.873Z,13.30
2022-11-02T11:40:05.811Z,13.77
2022-11-02T11:42:36.296Z,13.73
2022-11-02T11:45:07.839Z,11.80
2022-11-02T11:47:41.040Z,11.30
2022-11-02T11:50:27.744Z,12.15
2022-11-02T11:53:23.497Z,10.38
2022-11-02T11:55:53.146Z,12.32
2022-11-02T11:58:27.021Z,13.68
2022-11-02T12:01:11.909Z,12.95
2022-11-02T12:03:54.514Z,12.73
2022-11-02T12:06:40.109Z,11.50
2022-11-02T12:09:42.278Z,12.32
2022-11-02T12:12:12.095Z,12.70
2022-11-02T12:15:05.444Z,12.15
2022-11-02T12:18:02.392Z,13.63
2022-11-02T12:20:38.313Z,12.13
2022-11-02T12:23:16.612Z,12.32
2022-11-02T12:26:17.491Z,11.57
2022-11-02T12:29:19.015Z,10.95
2022-11-02T12:32:00.633Z,11.85
2022-11-02T12:38:34.599Z,12.48
2022-11-02T12:41:12.277Z,19.55
2022-11-02T12:43:48.423Z,12.75
2022-11-02T12:46:48.463Z,12.43
2022-11-02T12:49:21.719Z,11.82
2022-11-02T12:52:12.005Z,11.27
2022-11-02T12:54:46.155Z,11.68
2022-11-02T12:57:16.396Z,10.80
2022-11-02T12:59:44.543Z,16.52
2022-11-02T13:02:24.503Z,12.38
2022-11-02T13:05:03.351Z,12.60
2022-11-02T13:07:44.566Z,10.70
2022-11-02T13:10:24.408Z,11.32
2022-11-02T13:12:55.373Z,12.82
2022-11-02T13:15:25.399Z,15.38
2022-11-02T13:17:56.840Z,13.75
2022-11-02T13:20:45.399Z,12.30
2022-11-02T13:23:34.359Z,11.32
2022-11-02T13:26:12.613Z,18.73
2022-11-02T13:28:48.621Z,12.70
2022-11-02T13:31:37.402Z,12.45
2022-11-02T13:34:10.582Z,11.00
2022-11-02T13:36:39.084Z,11.30
2022-11-02T13:39:23.923Z,11.80
2022-11-02T13:42:12.777Z,10.70
2022-11-02T13:45:02.868Z,10.73
2022-11-02T13:47:43.866Z,11.05
2022-11-02T13:50:15.199Z,14.27
2022-11-02T13:52:49.925Z,11.32
2022-11-02T13:55:21.737Z,11.40
2022-11-02T13:57:53.781Z,12.18
2022-11-02T14:00:23.317Z,11.63
2022-11-02T14:02:58.469Z,18.23
2022-11-02T14:05:31.963Z,20.38
2022-11-02T14:08:05.513Z,27.33
2022-11-02T14:10:37.417Z,13.88
2022-11-02T14:13:05.138Z,13.63
2022-11-02T14:15:32.175Z,13.68
2022-11-02T14:18:08.086Z,12.90
2022-11-02T14:20:40.971Z,12.27
2022-11-02T14:23:14.390Z,13.25
2022-11-02T14:26:01.735Z,13.48
2022-11-02T14:28:54.891Z,14.48
2022-11-02T14:31:45.797Z,15.75
2022-11-02T14:34:33.177Z,15.70
2022-11-02T14:37:23.257Z,17.98
2022-11-02T14:40:11.015Z,15.02
2022-11-02T14:42:59.634Z,21.95
2022-11-02T14:46:04.908Z,23.02
2022-11-02T14:48:53.771Z,15.52
2022-11-02T14:51:22.127Z,15.85
2022-11-02T14:53:56.038Z,13.73
2022-11-02T14:56:23.450Z,14.45
2022-11-02T14:58:56.295Z,16.15
2022-11-02T15:01:23.845Z,15.10
2022-11-02T15:03:51.368Z,16.50
2022-11-02T15:06:23.930Z,16.05
2022-11-02T15:08:53.970Z,15.52
2022-11-02T15:11:49.663Z,16.75
2022-11-02T15:14:35.332Z,17.27
2022-11-02T15:17:22.375Z,22.67
2022-11-02T15:19:53.673Z,16.88
2022-11-02T15:22:32.574Z,15.85
2022-11-02T15:25:22.149Z,16.35
2022-11-02T15:27:51.589Z,15.93
2022-11-02T15:30:28.121Z,15.98
2022-11-02T15:33:06.809Z,15.52
2022-11-02T15:35:37.043Z,14.95
2022-11-02T15:38:25.842Z,15.63
2022-11-02T15:41:25.259Z,14.32
2022-11-02T15:44:11.089Z,14.98
2022-11-02T15:46:54.911Z,15.75
2022-11-02T15:49:59.127Z,15.20
2022-11-02T15:52:28.727Z,15.65
2022-11-02T15:55:17.375Z,15.13
2022-11-02T15:57:49.911Z,14.20
2022-11-02T16:00:21.825Z,15.07
2022-11-02T16:02:52.898Z,15.05
2022-11-02T16:05:28.038Z,15.88
2022-11-02T16:08:10.541Z,15.57
2022-11-02T16:10:38.061Z,17.40
2022-11-02T16:13:08.013Z,18.23
2022-11-02T16:15:34.870Z,21.92
2022-11-02T16:18:01.930Z,28.50
2022-11-02T16:20:33.165Z,36.15
2022-11-02T16:23:07.572Z,41.20
2022-11-02T16:25:46.453Z,46.13
2022-11-02T16:28:28.163Z,45.78
2022-11-02T16:31:03.393Z,45.67
2022-11-02T16:33:56.870Z,45.08
2022-11-02T16:36:32.317Z,39.83
2022-11-02T16:39:28.132Z,36.30
2022-11-02T16:41:58.150Z,28.13
2022-11-02T16:44:33.190Z,22.35
2022-11-02T16:47:07.164Z,19.10
2022-11-02T16:49:55.281Z,18.35
2022-11-02T16:52:35.111Z,17.42
2022-11-02T16:55:02.638Z,18.60
2022-11-02T16:57:45.425Z,17.02
2022-11-02T17:00:18.806Z,17.92
2022-11-02T17:02:46.271Z,15.20
2022-11-02T17:05:20.792Z,15.85
2022-11-02T17:07:50.754Z,14.60
2022-11-02T17:10:26.294Z,15.25
2022-11-02T17:12:54.447Z,15.75
2022-11-02T17:15:23.580Z,16.50
2022-11-02T17:17:50.872Z,16.95
2022-11-02T17:20:24.228Z,18.13
2022-11-02T17:22:58.363Z,16.17
2022-11-02T17:25:36.403Z,16.85
2022-11-02T17:28:24.844Z,15.73
2022-11-02T17:30:53.020Z,16.33
2022-11-02T17:33:31.446Z,16.02
2022-11-02T17:36:07.808Z,16.23
2022-11-02T17:38:35.247Z,15.70
2022-11-02T17:41:02.148Z,16.27
2022-11-02T17:43:29.004Z,17.20
2022-11-02T17:46:03.146Z,15.95
2022-11-02T17:48:30.200Z,15.60
2022-11-02T17:50:59.963Z,16.70
2022-11-02T17:53:27.292Z,16.38
2022-11-02T17:55:55.797Z,15.43
2022-11-02T17:58:22.631Z,15.50
2022-11-02T18:00:49.727Z,15.80
2022-11-02T18:03:19.335Z,15.43
2022-11-02T18:05:50.061Z,15.38
2022-11-02T18:08:18.821Z,14.95
2022-11-02T18:10:47.731Z,20.00
2022-11-02T18:13:17.647Z,28.23
2022-11-02T18:15:45.220Z,18.40
2022-11-02T18:18:12.269Z,15.05
2022-11-02T18:20:41.768Z,15.23
2022-11-02T18:23:15.487Z,15.98
2022-11-02T18:25:42.729Z,15.45
2022-11-02T18:28:09.589Z,16.35
2022-11-02T18:30:36.440Z,17.95
2022-11-02T18:33:03.352Z,24.48
2022-11-02T18:35:30.263Z,28.75
2022-11-02T18:37:57.107Z,20.65
2022-11-02T18:40:23.963Z,18.48
2022-11-02T18:42:50.777Z,16.80
2022-11-02T18:45:17.845Z,15.65
2022-11-02T18:47:44.705Z,14.57
2022-11-02T18:50:13.143Z,15.23
2022-11-02T18:52:41.915Z,15.88
2022-11-02T18:55:08.856Z,16.15
2022-11-02T18:57:35.654Z,16.75
2022-11-02T19:00:03.594Z,16.33
2022-11-02T19:02:30.561Z,16.02
2022-11-02T19:04:57.537Z,16.50
2022-11-02T19:07:59.904Z,16.00
2022-11-02T19:10:26.682Z,15.60
2022-11-02T19:12:53.510Z,16.55
2022-11-02T19:15:20.421Z,16.88
2022-11-02T19:17:47.253Z,15.32
2022-11-02T19:20:14.062Z,16.58
2022-11-02T19:22:40.892Z,15.73
2022-11-02T19:25:09.229Z,15.38
2022-11-02T19:27:36.290Z,17.33
2022-11-02T19:30:03.183Z,17.25
2022-11-02T19:32:30.007Z,16.45
2022-11-02T19:34:57.003Z,17.65
2022-11-02T19:37:23.829Z,17.38
2022-11-02T19:39:50.636Z,18.52
2022-11-02T19:42:17.528Z,19.73
2022-11-02T19:44:44.363Z,19.42
2022-11-02T19:47:11.211Z,18.58
2022-11-02T19:49:38.024Z,18.77
2022-11-02T19:52:04.831Z,19.00
2022-11-02T19:54:31.657Z,18.58
2022-11-02T19:56:58.433Z,19.65
2022-11-02T19:59:25.257Z,20.23
2022-11-02T20:01:52.430Z,20.80
2022-11-02T20:04:19.503Z,20.17
2022-11-02T20:06:46.342Z,20.80
2022-11-02T20:09:16.030Z,21.05
2022-11-02T20:11:44.670Z,21.58
2022-11-02T20:14:13.247Z,21.42
2022-11-02T20:16:40.223Z,21.27
2022-11-02T20:19:07.628Z,20.88
2022-11-02T20:21:39.828Z,20.77
2022-11-02T20:24:10.292Z,24.52
2022-11-02T20:26:38.701Z,24.33
2022-11-02T20:29:06.875Z,20.90
2022-11-02T20:31:36.370Z,18.38
2022-11-02T20:34:05.168Z,17.42
2022-11-02T20:36:32.188Z,16.70
2022-11-02T20:38:59.628Z,16.08
2022-11-02T20:41:26.648Z,15.10
2022-11-02T20:43:55.657Z,15.35
2022-11-02T20:46:42.301Z,14.80
2022-11-02T20:49:20.402Z,14.63
2022-11-02T20:51:56.300Z,15.40
2022-11-02T20:54:23.940Z,17.48
2022-11-02T20:56:51.310Z,17.40
2022-11-02T20:59:18.174Z,32.42
2022-11-02T21:01:45.495Z,15.60
2022-11-02T21:04:18.495Z,13.77
2022-11-02T21:06:46.664Z,13.32
2022-11-02T21:09:13.472Z,12.82
2022-11-02T21:11:58.961Z,13.40
2022-11-02T21:14:25.836Z,13.00
2022-11-02T21:16:52.635Z,13.30
2022-11-02T21:19:19.477Z,13.45
2022-11-02T21:21:47.198Z,14.15
2022-11-02T21:24:14.016Z,13.60
2022-11-02T21:26:40.802Z,12.63
2022-11-02T21:29:08.744Z,13.40
2022-11-02T21:31:35.537Z,13.65
2022-11-02T21:34:02.396Z,13.23
2022-11-02T21:36:29.288Z,14.07
2022-11-02T21:38:56.306Z,13.68
2022-11-02T21:41:26.606Z,13.32
2022-11-02T21:43:55.530Z,14.18
2022-11-02T21:46:24.252Z,14.15
2022-11-02T21:48:51.056Z,13.05
2022-11-02T21:51:20.907Z,13.65
2022-11-02T21:53:48.902Z,14.55
2022-11-02T21:56:21.174Z,13.82
2022-11-02T21:58:48.784Z,17.75
2022-11-02T22:01:39.627Z,14.30
2022-11-02T22:04:08.016Z,14.63
2022-11-02T22:06:35.275Z,14.25
2022-11-02T22:09:02.416Z,12.65
2022-11-02T22:11:29.395Z,13.10
2022-11-02T22:13:58.151Z,13.13
2022-11-02T22:16:31.731Z,13.57
2022-11-02T22:19:00.527Z,13.35
2022-11-02T22:21:30.408Z,15.32
2022-11-02T22:23:57.831Z,14.10
2022-11-02T22:26:27.031Z,13.88
2022-11-02T22:28:54.411Z,13.13
2022-11-02T22:31:27.311Z,15.93
2022-11-02T22:33:56.373Z,15.13
2022-11-02T22:36:26.120Z,15.85
2022-11-02T22:38:54.443Z,15.05
2022-11-02T22:41:25.503Z,15.63
2022-11-02T22:43:58.003Z,14.82
2022-11-02T22:46:26.584Z,16.20
2022-11-02T22:48:55.395Z,15.10
2022-11-02T22:51:24.669Z,16.48
2022-11-02T22:53:51.822Z,15.80
2022-11-02T22:56:20.910Z,15.27
2022-11-02T22:58:48.752Z,15.23
2022-11-02T23:01:19.022Z,15.55
2022-11-02T23:03:46.884Z,15.07
2022-11-02T23:06:14.355Z,15.43
2022-11-02T23:08:45.536Z,16.10
2022-11-02T23:11:22.948Z,16.63
2022-11-02T23:13:54.271Z,16.30
2022-11-02T23:16:30.728Z,15.98
2022-11-02T23:19:23.486Z,16.42
2022-11-02T23:22:16.750Z,16.33
2022-11-02T23:25:06.358Z,16.67
2022-11-02T23:27:35.069Z,17.48
2022-11-02T23:30:20.536Z,17.63
2022-11-02T23:32:47.374Z,16.85
2022-11-02T23:35:32.500Z,17.42
2022-11-02T23:38:04.871Z,18.33
2022-11-02T23:40:32.919Z,17.88
2022-11-02T23:42:59.804Z,17.67
2022-11-02T23:45:26.588Z,17.85
2022-11-02T23:48:02.257Z,18.65
2022-11-02T23:50:49.437Z,17.70
2022-11-02T23:53:37.432Z,18.80
2022-11-02T23:56:24.278Z,16.50
2022-11-02T23:59:06.765Z,16.60
